Terminal Aerodrome Forecast
Issued by NWS

Home | Current Version | Previous Version | Text Only | Print | Product List | Glossary On
Versions: 1 2 3 4 5 6 7 8 9 10 11 12
000
FTUS43 KICT 041745
TAFSLN
TAF
KSLN 041745Z 0418/0518 17007KT P6SM VCSH SCT040 OVC080
      TEMPO 0418/0422 5SM TSRA OVC040CB
     FM042200 14009KT P6SM VCTS SCT015 OVC035CB=

USA.gov is the U.S. government's official web portal to all federal, state and local government web resources and services.